Flight Track Log - Related Links

Times and Time Zones

All times are in EDT time to prevent confusion due to time zone crossing. See the UAL709 flight status page for this flight to view local times or setup timezone preferences in your user account.


Time Position Orientation Groundspeed Altitude Reporting Facility
EDT Latitude Longitude Course Direction KTS MPH feet Rate Location/Type
Thu 09:32:40 AM 42.0000 -88.0000 252° West 193 222 3,000  Level Chicago TRACON
Thu 09:33:39 AM 42.0000 -88.0833 270° West 243 280 4,900 2,389 Climbing Chicago TRACON
Thu 09:34:33 AM 42.0000 -88.1667 270° West 263 303 7,500 2,667 Climbing Chicago TRACON
Thu 09:35:00 AM 41.8308 -88.4948 254° West  Level FlightAware Approximate
Thu 09:35:27 AM 42.0000 -88.2667 270° West 280 322 9,700  Level Chicago TRACON
Thu 09:36:00 AM 41.7975 -88.6459 254° West  Level FlightAware Approximate
Thu 09:36:34 AM 41.9894 -88.3742 263° West 284 327 12,000  Level Chicago Center
Thu 09:37:00 AM 41.7639 -88.7968 253° West  Level FlightAware Approximate
Thu 09:37:37 AM 41.9700 -88.4811 256° West 296 341 14,300  Level Chicago Center
Thu 09:38:00 AM 41.7298 -88.9474 252° West  Level FlightAware Approximate
Thu 09:38:39 AM 41.9497 -88.5906 256° West 303 349 16,400  Level Chicago Center
Thu 09:39:41 AM 41.9264 -88.7239 257° West 308 354 18,700 1,887 Climbing Chicago Center
Thu 09:40:43 AM 41.8889 -88.8350 246° West 329 379 20,300 1,403 Climbing Chicago Center
Thu 09:41:45 AM 41.8578 -88.9464 249° West 323 372 21,600 823 Climbing Chicago Center
Thu 09:42:47 AM 41.8203 -89.0692 248° West 354 407 22,000 581 Climbing Chicago Center
Thu 09:43:49 AM 41.7786 -89.2003 247° West 381 438 22,800 968 Climbing Chicago Center
Thu 09:44:51 AM 41.7292 -89.3633 248° West 394 453 24,000 1,161 Climbing Chicago Center
Thu 09:45:53 AM 41.6850 -89.5011 247° West 404 465 25,200 1,065 Climbing Chicago Center
Thu 09:46:55 AM 41.6464 -89.6297 248° West 408 470 26,200 1,016 Climbing Chicago Center
Thu 09:47:57 AM 41.6022 -89.7681 247° West 407 468 27,300 960 Climbing Chicago Center
Thu 09:49:00 AM 41.5481 -89.9389 247° West 418 481 28,200 720 Climbing Chicago Center
Thu 09:50:02 AM 41.5017 -90.0847 247° West 427 491 28,800 726 Climbing Chicago Center
Thu 09:51:04 AM 41.4539 -90.2319 247° West 434 499 29,700 919 Climbing Chicago Center
Thu 09:52:06 AM 41.4058 -90.3800 247° West 437 503 30,700 1,065 Climbing Chicago Center
Thu 09:53:08 AM 41.3586 -90.5267 247° West 435 501 31,900 1,065 Climbing Chicago Center
Thu 09:54:10 AM 41.3069 -90.7042 249° West 433 498 32,900 968 Climbing Chicago Center
Thu 09:55:12 AM 41.2775 -90.8508 255° West 418 481 33,900 532 Climbing Chicago Center
Thu 09:56:14 AM 41.2483 -90.9975 255° West 414 476 34,000 48 Climbing Chicago Center
Thu 09:57:16 AM 41.2183 -91.1428 255° West 409 471 34,000  Level Chicago Center
Thu 09:58:18 AM 41.1881 -91.2894 255° West 411 473 34,000  Level Chicago Center
Thu 09:59:20 AM 41.1511 -91.4653 254° West 413 475 34,000  Level Chicago Center
Thu 10:00:23 AM 41.1211 -91.6122 255° West 414 476 34,000  Level Chicago Center
Thu 10:01:25 AM 41.0886 -91.7639 254° West 416 479 34,000  Level Chicago Center
Thu 10:02:27 AM 41.0578 -91.9092 254° West 415 478 34,000  Level Chicago Center
Thu 10:03:29 AM 41.0264 -92.0533 254° West 413 475 34,000  Level Chicago Center
Thu 10:04:31 AM 40.9953 -92.1961 254° West 410 472 34,000  Level Chicago Center
Thu 10:05:33 AM 40.9572 -92.3731 254° West 418 481 34,000  Level Chicago Center
Thu 10:06:35 AM 40.9256 -92.5186 254° West 417 480 34,000  Level Chicago Center
Thu 10:07:37 AM 40.8931 -92.6658 254° West 422 486 34,000  Level Chicago Center
Thu 10:08:39 AM 40.8606 -92.8119 254° West 421 484 34,000  Level Chicago Center
Thu 10:09:41 AM 40.8214 -92.9875 254° West 421 484 34,000  Level Chicago Center
Thu 10:10:43 AM 40.7886 -93.1336 254° West 421 484 34,000  Level Chicago Center
Thu 10:11:46 AM 40.7556 -93.2808 254° West 424 488 34,000  Level Chicago Center
Thu 10:12:48 AM 40.7219 -93.4281 253° West 425 489 34,000  Level Chicago Center
Thu 10:14:08 AM 40.6775 -93.6339 254° West 428 493 34,000  Level Minneapolis Center
Thu 10:15:10 AM 40.6658 -93.7842 264° West 424 488 34,000 -49 Level Minneapolis Center
Thu 10:16:11 AM 40.6642 -93.9342 269° West 417 480 33,900  Descending Minneapolis Center
Thu 10:17:13 AM 40.6639 -94.1178 270° West 421 484 34,000 48 Climbing Minneapolis Center
Thu 10:18:15 AM 40.6617 -94.2722 269° West 424 488 34,000  Level Minneapolis Center
Thu 10:19:17 AM 40.6586 -94.4297 269° West 431 496 34,000 48 Level Minneapolis Center
Thu 10:20:19 AM 40.6572 -94.6064 269° West 430 495 34,100  Climbing Minneapolis Center
Thu 10:21:21 AM 40.6581 -94.7619 270° West 426 490 34,000 -48 Descending Minneapolis Center
Thu 10:22:23 AM 40.6558 -94.9175 269° West 424 488 34,000  Level Minneapolis Center
Thu 10:23:25 AM 40.6567 -95.0692 270° West 418 481 34,000  Level Minneapolis Center
Thu 10:24:27 AM 40.6581 -95.2200 271° West 412 474 34,000  Level Minneapolis Center
Thu 10:25:29 AM 40.6592 -95.3706 271° West 409 471 34,000  Level Minneapolis Center
Thu 10:26:31 AM 40.6622 -95.5181 272° West 406 467 34,000  Level Minneapolis Center
Thu 10:27:33 AM 40.6639 -95.7011 271° West 408 470 34,000  Level Minneapolis Center
Thu 10:28:35 AM 40.6844 -95.8539 280° West 416 479 34,000 48 Level Minneapolis Center
Thu 10:29:37 AM 40.7108 -96.0047 283° West 421 484 34,100  Climbing Minneapolis Center
Thu 10:30:39 AM 40.7350 -96.1569 282° West 422 486 34,000  Descending Minneapolis Center
Thu 10:31:41 AM 40.7606 -96.3119 282° West 425 489 34,100 48 Climbing Minneapolis Center
Thu 10:32:43 AM 40.7314 -96.4678 256° West 436 502 34,100 -48 Level Minneapolis Center
Thu 10:33:45 AM 40.6886 -96.6181 249° West 439 505 34,000 -48 Descending Minneapolis Center
Thu 10:34:47 AM 40.6383 -96.7972 250° West 435 501 34,000  Level Minneapolis Center
Thu 10:35:49 AM 40.5953 -96.9464 249° West 435 501 34,000  Level Minneapolis Center
Thu 10:36:51 AM 40.5519 -97.0967 249° West 438 504 34,000  Level Minneapolis Center
Thu 10:37:53 AM 40.5094 -97.2456 249° West 436 502 34,000  Level Minneapolis Center
Thu 10:38:55 AM 40.4658 -97.3931 249° West 438 504 34,000  Level Minneapolis Center
Thu 10:39:57 AM 40.4219 -97.5431 249° West 438 504 34,000  Level Minneapolis Center
Thu 10:40:59 AM 40.3692 -97.7242 249° West 441 507 34,000  Level Minneapolis Center
Thu 10:42:01 AM 40.3236 -97.8739 248° West 441 507 34,000  Level Minneapolis Center
Thu 10:43:03 AM 40.2803 -98.0225 249° West 439 505 34,000  Level Minneapolis Center
Thu 10:44:05 AM 40.2356 -98.1703 248° West 437 503 34,000  Level Minneapolis Center
Thu 10:45:07 AM 40.1917 -98.3172 249° West 435 501 34,000  Level Minneapolis Center
Thu 10:46:10 AM 40.1472 -98.4647 249° West 435 501 34,000  Level Minneapolis Center
Thu 10:47:12 AM 40.1022 -98.6133 248° West 437 503 34,000  Level Minneapolis Center
Thu 10:48:14 AM 40.0486 -98.7906 248° West 436 502 34,000  Level Minneapolis Center
Thu 10:49:16 AM 40.0028 -98.9375 248° West 436 502 34,000  Level Minneapolis Center
Thu 10:50:08 AM 39.9656 -99.0544 247° West 436 502 34,000  Level Denver Center
Thu 10:51:10 AM 39.9206 -99.2014 248° West 434 499 34,000  Level Denver Center
Thu 10:52:12 AM 39.8742 -99.3481 248° West 435 501 34,000  Level Denver Center
Thu 10:53:14 AM 39.8278 -99.4961 248° West 441 507 34,000  Level Denver Center
Thu 10:54:17 AM 39.7714 -99.6739 248° West 442 509 34,000  Level Denver Center
Thu 10:55:19 AM 39.7253 -99.8206 248° West 439 505 34,000  Level Denver Center
Thu 10:56:21 AM 39.6775 -99.9683 247° West 443 510 34,000  Level Denver Center
Thu 10:57:23 AM 39.6317 -100.1089 247° West 442 509 34,000  Level Denver Center
Thu 10:58:25 AM 39.5789 -100.2747 248° West 445 512 34,000  Level Denver Center
Thu 10:59:27 AM 39.5328 -100.4161 247° West 444 511 34,000  Level Denver Center
Thu 11:00:29 AM 39.4786 -100.5806 247° West 444 511 34,000  Level Denver Center
Thu 11:01:31 AM 39.4331 -100.7222 247° West 446 513 34,000  Level Denver Center
Thu 11:02:33 AM 39.3786 -100.8842 247° West 442 509 34,000  Level Denver Center
Thu 11:03:35 AM 39.3317 -101.0244 247° West 443 510 34,000  Level Denver Center
Thu 11:04:37 AM 39.2778 -101.1889 247° West 444 511 34,000  Level Denver Center
Thu 11:05:39 AM 39.2311 -101.3283 247° West 444 511 34,000  Level Denver Center
Thu 11:06:41 AM 39.1758 -101.4881 246° West 437 503 34,000  Level Denver Center
Thu 11:07:43 AM 39.1289 -101.6286 247° West 444 511 34,000  Level Denver Center
Thu 11:08:45 AM 39.0819 -101.7681 247° West 440 506 34,000 145 Level Denver Center
Thu 11:09:47 AM 39.0269 -101.9269 246° West 437 503 34,300 484 Climbing Denver Center
Thu 11:10:49 AM 38.9794 -102.0644 246° West 439 505 35,000 774 Climbing Denver Center
Thu 11:11:51 AM 38.9247 -102.2233 246° West 438 504 35,900 480 Climbing Denver Center
Thu 11:12:54 AM 38.8775 -102.3597 246° West 438 504 36,000 48 Climbing Denver Center
Thu 11:13:56 AM 38.8222 -102.5175 246° West 436 502 36,000  Level Denver Center
Thu 11:14:58 AM 38.7739 -102.6539 246° West 438 504 36,000  Level Denver Center
Thu 11:16:00 AM 38.7192 -102.8119 246° West 442 509 36,000  Level Denver Center
Thu 11:17:01 AM 38.6781 -102.9258 245° Southwest 442 509 36,000  Level Denver Center
Thu 11:18:04 AM 38.6133 -103.1056 245° Southwest 437 503 36,000  Level Denver Center
Thu 11:19:06 AM 38.5644 -103.2450 246° West 441 507 36,000  Level Denver Center
Thu 11:20:08 AM 38.5069 -103.4033 245° Southwest 440 506 36,000  Level Denver Center
Thu 11:21:10 AM 38.4586 -103.5364 245° Southwest 441 507 36,000  Level Denver Center
Thu 11:22:12 AM 38.4008 -103.6956 245° Southwest 442 509 36,000  Level Denver Center
Thu 11:23:14 AM 38.3503 -103.8319 245° Southwest 444 511 36,000  Level Denver Center
Thu 11:24:16 AM 38.2928 -103.9906 245° Southwest 444 511 36,000  Level Denver Center
Thu 11:25:18 AM 38.2414 -104.1269 244° Southwest 447 514 36,000  Level Denver Center
Thu 11:26:20 AM 38.1825 -104.2858 245° Southwest 447 514 36,000  Level Denver Center
Thu 11:27:22 AM 38.1317 -104.4219 245° Southwest 448 516 36,000  Level Denver Center
Thu 11:28:24 AM 38.0728 -104.5811 245° Southwest 447 514 36,000  Level Denver Center
Thu 11:29:26 AM 38.0214 -104.7156 244° Southwest 445 512 36,000  Level Denver Center
Thu 11:30:28 AM 37.9786 -104.8289 244° Southwest 447 514 36,000  Level Denver Center
Thu 11:31:31 AM 37.9097 -105.0103 244° Southwest 448 516 36,000  Level Denver Center
Thu 11:32:33 AM 37.8489 -105.1689 244° Southwest 449 517 36,000  Level Denver Center
Thu 11:33:35 AM 37.7950 -105.3069 244° Southwest 454 522 36,000  Level Denver Center
Thu 11:34:36 AM 37.7511 -105.4211 244° Southwest 455 524 36,000  Level Denver Center
Thu 11:35:39 AM 37.6794 -105.6061 244° Southwest 460 529 36,000  Level Denver Center
Thu 11:36:41 AM 37.6158 -105.7675 244° Southwest 461 531 36,000  Level Denver Center
Thu 11:37:43 AM 37.5633 -105.9067 245° Southwest 460 529 36,000  Level Denver Center
Thu 11:38:45 AM 37.5031 -106.0583 243° Southwest 460 529 36,000  Level Denver Center
Thu 11:39:59 AM 37.4481 -106.1944 243° Southwest 457 526 36,000  Level Denver Center
Thu 11:41:02 AM 37.3767 -106.3789 244° Southwest 459 528 36,000  Level Denver Center
Thu 11:42:04 AM 37.3114 -106.5381 243° Southwest 459 528 36,000  Level Denver Center
Thu 11:43:06 AM 37.2575 -106.6767 244° Southwest 460 529 36,000  Level Denver Center
Thu 11:44:08 AM 37.1919 -106.8350 243° Southwest 458 527 36,000  Level Denver Center
Thu 11:45:10 AM 37.1367 -106.9711 243° Southwest 458 527 36,000  Level Denver Center
Thu 11:46:12 AM 37.0717 -107.1306 243° Southwest 459 528 36,000  Level Denver Center
Thu 11:47:14 AM 37.0150 -107.2683 243° Southwest 463 533 36,000  Level Denver Center
Thu 11:48:16 AM 36.9592 -107.4058 243° Southwest 466 536 36,000  Level Denver Center
Thu 11:49:18 AM 36.8928 -107.5669 243° Southwest 466 536 36,000  Level Denver Center
Thu 11:50:20 AM 36.8367 -107.7017 243° Southwest 460 529 36,000  Level Denver Center
Thu 11:51:22 AM 36.7722 -107.8572 243° Southwest 453 521 36,000  Level Denver Center
Thu 11:52:24 AM 36.7164 -107.9919 243° Southwest 455 524 36,000  Level Denver Center
Thu 11:53:26 AM 36.6506 -108.1483 242° Southwest 458 527 36,000  Level Denver Center
Thu 11:54:29 AM 36.5931 -108.2839 242° Southwest 462 532 36,000  Level Denver Center
Thu 11:55:31 AM 36.5267 -108.4417 242° Southwest 463 533 36,000  Level Denver Center
Thu 11:56:32 AM 36.4800 -108.5533 243° Southwest 460 529 36,000  Level Denver Center
Thu 11:57:34 AM 36.4144 -108.7089 242° Southwest 458 527 36,000  Level Denver Center
Thu 11:58:37 AM 36.3475 -108.8650 242° Southwest 461 531 36,000  Level Denver Center
Thu 11:59:39 AM 36.2803 -109.0200 242° Southwest 462 532 36,000  Level Denver Center
Thu 12:00:41 PM 36.2222 -109.1528 242° Southwest 463 533 36,000  Level Denver Center
Thu 12:01:43 PM 36.1536 -109.3069 241° Southwest 462 532 36,000  Level Denver Center
Thu 12:02:45 PM 36.0958 -109.4400 242° Southwest 462 532 36,000  Level Albuquerque Center
Thu 12:03:47 PM 36.0275 -109.5944 241° Southwest 460 529 36,000  Level Albuquerque Center
Thu 12:04:49 PM 35.9781 -109.7056 241° Southwest 461 531 36,000  Level Denver Center
Thu 12:06:03 PM 35.9006 -109.8819 242° Southwest 458 527 36,000  Level Denver Center
Thu 12:06:53 PM 35.8389 -110.0128 240° Southwest 461 531 36,000  Level Albuquerque Center
Thu 12:07:55 PM 35.7700 -110.1661 241° Southwest 459 528 36,000  Level Albuquerque Center
Thu 12:08:57 PM 35.7100 -110.2992 241° Southwest 462 532 36,000  Level Albuquerque Center
Thu 12:09:59 PM 35.6419 -110.4536 242° Southwest 461 531 36,000  Level Albuquerque Center
Thu 12:11:01 PM 35.5814 -110.5847 240° Southwest 461 531 36,000  Level Albuquerque Center
Thu 12:12:03 PM 35.5117 -110.7378 241° Southwest 459 528 36,000  Level Albuquerque Center
Thu 12:13:05 PM 35.4528 -110.8675 241° Southwest 456 525 36,000  Level Albuquerque Center
Thu 12:14:07 PM 35.3819 -111.0183 240° Southwest 456 525 36,000  Level Albuquerque Center
Thu 12:15:09 PM 35.3239 -111.1489 241° Southwest 456 525 36,000  Level Albuquerque Center
Thu 12:16:11 PM 35.2600 -111.2967 242° Southwest 461 531 36,000  Level Albuquerque Center
Thu 12:17:13 PM 35.1975 -111.4289 240° Southwest 453 521 36,000  Level Albuquerque Center
Thu 12:18:15 PM 35.1361 -111.5611 240° Southwest 450 518 36,000  Level Albuquerque Center
Thu 12:19:17 PM 35.0736 -111.6939 240° Southwest 452 520 36,000  Level Albuquerque Center
Thu 12:20:19 PM 35.0031 -111.8439 240° Southwest 450 518 36,000  Level Albuquerque Center
Thu 12:21:22 PM 34.9411 -111.9778 241° Southwest 454 522 36,000  Level Albuquerque Center
Thu 12:22:24 PM 34.8936 -112.1178 248° West 451 519 36,000  Level Albuquerque Center
Thu 12:23:26 PM 34.8500 -112.2617 250° West 453 521 36,000  Level Albuquerque Center
Thu 12:24:28 PM 34.8078 -112.4042 250° West 450 518 36,000  Level Albuquerque Center
Thu 12:25:30 PM 34.7567 -112.5756 250° West 449 517 36,000  Level Albuquerque Center
Thu 12:26:32 PM 34.7131 -112.7181 250° West 450 518 36,000  Level Albuquerque Center
Thu 12:27:34 PM 34.6708 -112.8617 250° West 451 519 36,000  Level Albuquerque Center
Thu 12:28:36 PM 34.6269 -113.0039 249° West 451 519 36,000  Level Albuquerque Center
Thu 12:29:38 PM 34.5836 -113.1469 250° West 452 520 36,000  Level Albuquerque Center
Thu 12:30:40 PM 34.5386 -113.2908 249° West 455 524 36,000  Level Albuquerque Center
Thu 12:31:42 PM 34.4856 -113.4619 249° West 455 524 36,000  Level Albuquerque Center
Thu 12:32:44 PM 34.4414 -113.6056 250° West 455 524 36,000 -435 Level Albuquerque Center
Thu 12:33:46 PM 34.3911 -113.7647 249° West 460 529 35,100 -968 Descending Albuquerque Center
Thu 12:34:48 PM 34.3472 -113.9069 250° West 456 525 34,000 -532 Descending Albuquerque Center
Thu 12:35:50 PM 34.3022 -114.0506 249° West 456 525 34,000  Level Albuquerque Center
Thu 12:36:52 PM 34.2561 -114.1942 249° West 456 525 34,000 -339 Level Albuquerque Center
Thu 12:37:54 PM 34.2119 -114.3386 250° West 457 526 33,300 -1,017 Descending Albuquerque Center
Thu 12:38:50 PM 34.1708 -114.4672 249° West 458 527 32,000 -1,475 Descending Los Angeles Center
Thu 12:39:52 PM 34.1258 -114.6092 249° West 457 526 30,400 -1,597 Descending Los Angeles Center
Thu 12:40:54 PM 34.0631 -114.7700 245° Southwest 445 512 28,700 -1,210 Descending Los Angeles Center
Thu 12:41:56 PM 34.0069 -114.8972 242° Southwest 435 501 27,900 -336 Descending Los Angeles Center
Thu 12:42:59 PM 33.9525 -115.0231 242° Southwest 425 489 28,000  Climbing Los Angeles Center
Thu 12:44:01 PM 33.8964 -115.1483 242° Southwest 426 490 27,900 -48 Descending Los Angeles Center
Thu 12:45:03 PM 33.8397 -115.2758 242° Southwest 432 497 27,900 48 Level Los Angeles Center
Thu 12:46:05 PM 33.7833 -115.4014 242° Southwest 428 493 28,000 -387 Climbing Los Angeles Center
Thu 12:47:07 PM 33.7150 -115.5528 242° Southwest 430 495 27,100 -1,113 Descending Los Angeles Center
Thu 12:48:09 PM 33.6625 -115.6719 242° Southwest 409 471 25,700 -1,403 Descending Los Angeles Center
Thu 12:49:11 PM 33.6083 -115.7850 240° Southwest 394 453 24,200 -871 Descending Los Angeles Center
Thu 12:50:13 PM 33.5486 -115.8858 235° Southwest 373 429 23,900 -96 Descending Los Angeles Center
Thu 12:51:16 PM 33.4739 -115.9831 227° Southwest 397 457 24,000 -864 Climbing Los Angeles Center
Thu 12:52:18 PM 33.3714 -116.0844 220° Southwest 400 460 22,100 -1,984 Descending Los Angeles Center
Thu 12:53:20 PM 33.2864 -116.1683 220° Southwest 397 457 19,900 -2,129 Descending Los Angeles Center
Thu 12:54:22 PM 33.2031 -116.2503 219° Southwest 391 450 17,700 -2,177 Descending Los Angeles Center
Thu 12:55:24 PM 33.1211 -116.3314 220° Southwest 386 444 15,400 -2,468 Descending Los Angeles Center
Thu 12:56:26 PM 33.0308 -116.4189 219° Southwest 374 430 12,600 -1,742 Descending Los Angeles Center
Thu 12:57:28 PM 32.9667 -116.4650 211° Southwest 349 402 11,800 -919 Descending Los Angeles Center
Thu 12:58:30 PM 32.8761 -116.5217 208° Southwest 309 356 10,700 -1,248 Descending Los Angeles Center
Thu 12:59:33 PM 32.8050 -116.5667 208° Southwest 297 342 9,200 -1,056 Descending Los Angeles Center
Thu 01:00:35 PM 32.7344 -116.6100 207° Southwest 291 335 8,500 -1,161 Descending Los Angeles Center
Thu 01:01:37 PM 32.6531 -116.6614 208° Southwest 281 323 6,800 -968 Descending Los Angeles Center
Thu 01:03:10 PM 32.6500 -116.7833 268° West 246 283 6,000 -435 Descending Southern California TRACON
Thu 01:03:41 PM 32.6514 -116.8219 272° West 255 293 5,900 -516 Descending Los Angeles Center
Thu 01:04:43 PM 32.6656 -116.9006 282° West 247 284 5,200 -677 Descending Los Angeles Center

Login

Don't have an account? Register now (free) for customized features, flight alerts, and more!